createdAt,value
2022-09-02T00:00:17.369Z,4.60
2022-09-02T00:01:17.368Z,2.30
2022-09-02T00:02:17.490Z,2.00
2022-09-02T00:03:17.530Z,2.70
2022-09-02T00:04:17.347Z,2.60
2022-09-02T00:05:17.338Z,3.60
2022-09-02T00:06:17.333Z,2.10
2022-09-02T00:07:17.329Z,2.70
2022-09-02T00:08:17.322Z,1.80
2022-09-02T00:09:17.318Z,2.70
2022-09-02T00:10:17.307Z,2.80
2022-09-02T00:11:17.306Z,2.40
2022-09-02T00:12:17.295Z,2.00
2022-09-02T00:13:17.290Z,2.90
2022-09-02T00:14:17.284Z,2.20
2022-09-02T00:15:17.280Z,3.10
2022-09-02T00:16:17.415Z,2.30
2022-09-02T00:17:17.265Z,2.20
2022-09-02T00:18:18.291Z,2.60
2022-09-02T00:19:17.254Z,2.10
2022-09-02T00:20:17.247Z,2.80
2022-09-02T00:21:17.241Z,2.40
2022-09-02T00:22:17.234Z,3.00
2022-09-02T00:23:17.241Z,2.50
2022-09-02T00:24:17.221Z,1.90
2022-09-02T00:25:17.216Z,2.30
2022-09-02T00:26:17.210Z,1.70
2022-09-02T00:27:17.203Z,2.70
2022-09-02T00:28:17.201Z,2.30
2022-09-02T00:29:17.191Z,2.50
2022-09-02T00:30:17.186Z,3.20
2022-09-02T00:31:17.194Z,2.70
2022-09-02T00:32:17.177Z,2.50
2022-09-02T00:33:17.201Z,2.50
2022-09-02T00:34:17.160Z,2.40
2022-09-02T00:35:17.150Z,1.80
2022-09-02T00:36:17.145Z,2.50
2022-09-02T00:37:17.141Z,1.80
2022-09-02T00:38:17.135Z,2.60
2022-09-02T00:39:17.126Z,1.70
2022-09-02T00:40:17.171Z,2.00
2022-09-02T00:41:17.121Z,2.10
2022-09-02T00:42:17.109Z,1.80
2022-09-02T00:43:17.138Z,1.50
2022-09-02T00:44:17.096Z,4.50
2022-09-02T00:45:17.090Z,2.00
2022-09-02T00:46:17.083Z,1.40
2022-09-02T00:47:17.078Z,1.20
2022-09-02T00:48:17.072Z,1.60
2022-09-02T00:49:17.067Z,2.90
2022-09-02T00:50:17.060Z,2.10
2022-09-02T00:51:17.057Z,1.60
2022-09-02T00:52:17.310Z,2.10
2022-09-02T00:53:17.108Z,2.30
2022-09-02T00:54:17.033Z,2.20
2022-09-02T00:55:17.031Z,2.50
2022-09-02T00:56:17.023Z,1.90
2022-09-02T00:57:17.013Z,1.60
2022-09-02T00:58:17.010Z,2.20
2022-09-02T00:59:17.003Z,3.00
2022-09-02T01:00:16.996Z,2.40
2022-09-02T01:01:17.206Z,1.30
2022-09-02T01:02:17.121Z,2.70
2022-09-02T01:03:16.980Z,1.50
2022-09-02T01:04:16.975Z,1.60
2022-09-02T01:05:16.966Z,3.10
2022-09-02T01:06:16.955Z,2.30
2022-09-02T01:07:16.954Z,2.40
2022-09-02T01:08:16.948Z,1.50
2022-09-02T01:09:16.943Z,4.30
2022-09-02T01:10:16.937Z,2.10
2022-09-02T01:11:16.934Z,1.10
2022-09-02T01:12:16.923Z,1.90
2022-09-02T01:13:16.920Z,1.40
2022-09-02T01:14:16.921Z,1.70
2022-09-02T01:15:16.907Z,2.70
2022-09-02T01:16:16.942Z,1.30
2022-09-02T01:17:16.896Z,2.10
2022-09-02T01:18:16.888Z,2.00
2022-09-02T01:19:16.881Z,1.30
2022-09-02T01:20:16.875Z,2.20
2022-09-02T01:21:16.868Z,2.60
2022-09-02T01:22:16.863Z,3.10
2022-09-02T01:23:16.857Z,2.50
2022-09-02T01:24:16.852Z,1.80
2022-09-02T01:25:16.846Z,1.70
2022-09-02T01:26:16.838Z,2.00
2022-09-02T01:27:16.842Z,3.70
2022-09-02T01:28:16.824Z,2.00
2022-09-02T01:29:16.820Z,2.00
2022-09-02T01:30:16.820Z,3.20
2022-09-02T01:31:16.948Z,2.80
2022-09-02T01:32:16.808Z,1.40
2022-09-02T01:33:25.183Z,2.40
2022-09-02T01:35:20.771Z,2.40
2022-09-02T01:36:20.757Z,1.80
2022-09-02T01:38:24.741Z,1.60
2022-09-02T01:39:24.745Z,1.60
2022-09-02T01:41:28.729Z,1.40
2022-09-02T01:42:28.714Z,2.70
2022-09-02T01:44:21.635Z,1.40
2022-09-02T01:45:21.626Z,2.30
2022-09-02T01:47:14.728Z,2.60
2022-09-02T01:48:14.713Z,2.20
2022-09-02T01:50:07.819Z,2.60
2022-09-02T01:51:07.809Z,2.70
2022-09-02T01:53:11.815Z,2.20
2022-09-02T01:54:11.803Z,2.30
2022-09-02T01:56:04.919Z,0.90
2022-09-02T01:57:04.905Z,2.50
2022-09-02T01:59:08.903Z,2.10
2022-09-02T02:00:08.895Z,3.10
2022-09-02T02:02:02.097Z,1.80
2022-09-02T02:03:01.998Z,2.60
2022-09-02T02:04:54.908Z,2.00
2022-09-02T02:05:54.898Z,1.30
2022-09-02T02:07:58.896Z,1.90
2022-09-02T02:08:58.878Z,1.60
2022-09-02T02:11:02.917Z,1.80
2022-09-02T02:12:02.891Z,1.80
2022-09-02T02:13:55.810Z,2.20
2022-09-02T02:14:55.800Z,2.90
2022-09-02T02:16:59.786Z,1.50
2022-09-02T02:17:59.766Z,2.80
2022-09-02T02:20:03.983Z,3.20
2022-09-02T02:21:03.972Z,2.80
2022-09-02T02:23:07.989Z,1.20
2022-09-02T02:24:07.967Z,2.00
2022-09-02T02:26:11.959Z,1.80
2022-09-02T02:27:11.939Z,2.20
2022-09-02T02:29:15.938Z,1.70
2022-09-02T02:30:15.933Z,2.80
2022-09-02T02:32:19.927Z,1.20
2022-09-02T02:33:19.943Z,1.60
2022-09-02T02:35:23.890Z,1.90
2022-09-02T02:36:23.869Z,1.70
2022-09-02T02:38:27.853Z,2.10
2022-09-02T02:39:27.836Z,1.60
2022-09-02T02:41:31.814Z,1.60
2022-09-02T02:42:31.805Z,3.40
2022-09-02T02:44:24.699Z,1.70
2022-09-02T02:45:24.690Z,1.40
2022-09-02T02:47:17.823Z,2.10
2022-09-02T02:48:17.807Z,1.80
2022-09-02T02:50:10.911Z,1.60
2022-09-02T02:51:10.902Z,1.50
2022-09-02T02:53:15.007Z,2.10
2022-09-02T02:54:14.911Z,1.40
2022-09-02T02:56:08.014Z,2.10
2022-09-02T02:57:07.997Z,2.60
2022-09-02T02:59:11.971Z,2.30
2022-09-02T03:00:11.960Z,1.90
2022-09-02T03:02:15.992Z,1.90
2022-09-02T03:03:15.924Z,3.40
2022-09-02T03:05:19.908Z,2.80
2022-09-02T03:06:19.891Z,2.10
2022-09-02T03:08:12.987Z,2.60
2022-09-02T03:09:12.979Z,2.00
2022-09-02T03:11:16.977Z,1.50
2022-09-02T03:12:16.973Z,2.70
2022-09-02T03:14:09.872Z,2.40
2022-09-02T03:15:09.862Z,1.80
2022-09-02T03:17:13.856Z,2.50
2022-09-02T03:18:13.838Z,2.90
2022-09-02T03:20:17.845Z,2.20
2022-09-02T03:21:17.829Z,1.70
2022-09-02T03:23:21.916Z,1.80
2022-09-02T03:24:21.796Z,3.80
2022-09-02T03:26:14.899Z,2.70
2022-09-02T03:27:14.884Z,2.10
2022-09-02T03:29:18.869Z,1.90
2022-09-02T03:30:18.853Z,3.10
2022-09-02T03:32:22.898Z,2.70
2022-09-02T03:33:23.020Z,2.20
2022-09-02T03:35:26.878Z,2.20
2022-09-02T03:36:26.857Z,3.20
2022-09-02T03:38:30.840Z,2.40
2022-09-02T03:39:30.831Z,1.60
2022-09-02T03:41:34.812Z,3.10
2022-09-02T03:42:34.794Z,1.90
2022-09-02T03:44:27.714Z,1.80
2022-09-02T03:45:27.696Z,2.00
2022-09-02T03:47:31.670Z,1.80
2022-09-02T03:48:31.663Z,1.80
2022-09-02T03:50:35.637Z,4.60
2022-09-02T03:51:35.617Z,1.90
2022-09-02T03:53:39.584Z,3.00
2022-09-02T03:54:39.576Z,3.10
2022-09-02T03:56:43.555Z,2.70
2022-09-02T03:57:43.553Z,2.40
2022-09-02T03:59:47.545Z,2.50
2022-09-02T04:00:47.524Z,3.20
2022-09-02T04:02:40.704Z,2.50
2022-09-02T04:03:40.613Z,2.10
2022-09-02T04:05:45.006Z,2.30
2022-09-02T04:06:44.575Z,2.90
2022-09-02T04:08:48.543Z,2.60
2022-09-02T04:09:48.533Z,3.70
2022-09-02T04:11:52.540Z,2.00
2022-09-02T04:12:52.520Z,2.40
2022-09-02T04:14:45.434Z,1.90
2022-09-02T04:15:45.448Z,3.20
2022-09-02T04:17:49.425Z,2.30
2022-09-02T04:18:49.416Z,2.80
2022-09-02T04:20:53.433Z,3.70
2022-09-02T04:21:53.417Z,1.60
2022-09-02T04:23:46.622Z,1.70
2022-09-02T04:24:46.604Z,3.10
2022-09-02T04:26:50.615Z,2.40
2022-09-02T04:27:50.601Z,2.00
2022-09-02T04:29:43.703Z,1.90
2022-09-02T04:30:43.688Z,2.20
2022-09-02T04:32:47.681Z,1.80
2022-09-02T04:33:47.659Z,2.80
2022-09-02T04:35:51.660Z,2.90
2022-09-02T04:36:51.645Z,1.50
2022-09-02T04:38:55.629Z,3.60
2022-09-02T04:39:55.614Z,2.40
2022-09-02T04:41:59.658Z,2.10
2022-09-02T04:42:59.595Z,3.60
2022-09-02T04:44:52.511Z,2.60
2022-09-02T04:45:52.520Z,2.90
2022-09-02T04:47:56.475Z,2.60
2022-09-02T04:48:56.466Z,2.70
2022-09-02T04:51:00.455Z,2.90
2022-09-02T04:52:00.441Z,4.60
2022-09-02T04:54:04.419Z,2.30
2022-09-02T04:55:04.403Z,3.20
2022-09-02T04:57:08.415Z,2.50
2022-09-02T04:58:08.383Z,3.50
2022-09-02T05:00:12.406Z,2.90
2022-09-02T05:01:12.423Z,2.30
2022-09-02T05:03:16.379Z,3.00
2022-09-02T05:04:16.374Z,1.80
2022-09-02T05:06:20.416Z,3.30
2022-09-02T05:07:20.359Z,2.90
2022-09-02T05:09:24.341Z,3.30
2022-09-02T05:10:24.324Z,2.90
2022-09-02T05:12:17.454Z,2.20
2022-09-02T05:13:17.440Z,2.20
2022-09-02T05:15:21.400Z,3.30
2022-09-02T05:16:21.413Z,1.90
2022-09-02T05:18:14.616Z,2.80
2022-09-02T05:19:14.766Z,4.10
2022-09-02T05:21:18.610Z,4.10
2022-09-02T05:22:18.597Z,6.50
2022-09-02T05:24:11.529Z,4.80
2022-09-02T05:25:11.510Z,4.90
2022-09-02T05:27:04.606Z,8.10
2022-09-02T05:28:04.598Z,6.20
2022-09-02T05:30:08.589Z,1999.90
2022-09-02T05:31:08.591Z,1999.90
2022-09-02T05:33:14.616Z,9.10
2022-09-02T05:34:12.540Z,1999.90
2022-09-02T05:36:16.516Z,1999.90
2022-09-02T05:37:16.503Z,1999.90
2022-09-02T05:39:20.514Z,1999.90
2022-09-02T05:40:22.718Z,1999.90
2022-09-02T05:42:24.479Z,1999.90
2022-09-02T05:43:24.470Z,1999.90
2022-09-02T05:45:28.476Z,1999.90
2022-09-02T05:46:28.548Z,1999.90
2022-09-02T05:48:32.458Z,1999.90
2022-09-02T05:49:32.446Z,1999.90
2022-09-02T05:51:25.620Z,4.00
2022-09-02T05:52:25.612Z,4.40
2022-09-02T05:54:18.535Z,2.50
2022-09-02T05:55:18.525Z,2.40
2022-09-02T05:56:18.518Z,3.00
2022-09-02T05:57:18.512Z,2.00
2022-09-02T05:58:18.509Z,2.60
2022-09-02T05:59:18.505Z,2.90
2022-09-02T06:00:18.499Z,3.80
2022-09-02T06:01:18.489Z,12.00
2022-09-02T06:02:18.603Z,17.40
2022-09-02T06:03:18.663Z,8.80
2022-09-02T06:04:18.478Z,6.10
2022-09-02T06:05:18.471Z,4.00
2022-09-02T06:06:18.466Z,2.70
2022-09-02T06:07:18.463Z,4.50
2022-09-02T06:08:18.455Z,3.00
2022-09-02T06:09:18.454Z,3.90
2022-09-02T06:10:18.447Z,3.00
2022-09-02T06:11:18.441Z,4.70
2022-09-02T06:12:18.435Z,2.50
2022-09-02T06:13:18.492Z,2.40
2022-09-02T06:14:18.429Z,3.70
2022-09-02T06:15:18.416Z,3.50
2022-09-02T06:16:18.478Z,2.10
2022-09-02T06:17:18.409Z,5.10
2022-09-02T06:18:18.406Z,4.60
2022-09-02T06:19:20.381Z,4.20
2022-09-02T06:20:18.394Z,4.10
2022-09-02T06:21:18.392Z,5.00
2022-09-02T06:22:18.383Z,3.70
2022-09-02T06:23:18.424Z,4.60
2022-09-02T06:24:18.372Z,2.90
2022-09-02T06:25:18.365Z,5.20
2022-09-02T06:26:18.362Z,3.30
2022-09-02T06:27:18.356Z,4.00
2022-09-02T06:28:18.353Z,4.20
2022-09-02T06:29:18.346Z,2.60
2022-09-02T06:30:18.346Z,3.20
2022-09-02T06:31:18.367Z,6.00
2022-09-02T06:32:18.332Z,4.60
2022-09-02T06:33:18.349Z,5.70
2022-09-02T06:34:18.321Z,5.40
2022-09-02T06:35:18.315Z,4.60
2022-09-02T06:36:18.310Z,7.40
2022-09-02T06:37:18.303Z,3.50
2022-09-02T06:38:18.298Z,2.90
2022-09-02T06:39:18.292Z,4.90
2022-09-02T06:40:18.308Z,6.30
2022-09-02T06:41:18.282Z,4.50
2022-09-02T06:42:18.277Z,3.70
2022-09-02T06:43:18.296Z,3.20
2022-09-02T06:44:18.266Z,3.80
2022-09-02T06:45:18.260Z,4.50
2022-09-02T06:46:18.315Z,3.90
2022-09-02T06:47:18.249Z,2.80
2022-09-02T06:48:18.246Z,4.00
2022-09-02T06:49:18.239Z,4.10
2022-09-02T06:50:18.233Z,6.80
2022-09-02T06:51:18.228Z,5.70
2022-09-02T06:52:18.225Z,6.90
2022-09-02T06:53:18.258Z,4.40
2022-09-02T06:54:18.214Z,4.80
2022-09-02T06:55:18.247Z,5.90
2022-09-02T06:56:18.203Z,6.10
2022-09-02T06:57:18.199Z,6.60
2022-09-02T06:58:18.191Z,5.70
2022-09-02T06:59:18.194Z,9.50
2022-09-02T07:00:18.184Z,9.90
2022-09-02T07:01:18.287Z,10.00
2022-09-02T07:02:18.197Z,10.10
2022-09-02T07:03:18.245Z,11.20
2022-09-02T07:04:18.171Z,9.60
2022-09-02T07:05:18.165Z,9.30
2022-09-02T07:06:18.162Z,9.20
2022-09-02T07:07:18.158Z,9.70
2022-09-02T07:08:18.156Z,10.60
2022-09-02T07:09:18.154Z,10.90
2022-09-02T07:10:18.151Z,10.10
2022-09-02T07:11:18.150Z,9.60
2022-09-02T07:12:18.148Z,9.50
2022-09-02T07:13:18.215Z,8.20
2022-09-02T07:14:18.143Z,5.40
2022-09-02T07:15:18.140Z,5.10
2022-09-02T07:16:26.505Z,4.70
2022-09-02T07:17:18.134Z,5.10
2022-09-02T07:18:18.134Z,6.30
2022-09-02T07:19:20.633Z,6.60
2022-09-02T07:20:18.128Z,4.30
2022-09-02T07:21:18.127Z,4.50
2022-09-02T07:22:18.894Z,5.20
2022-09-02T07:23:18.146Z,6.20
2022-09-02T07:24:18.120Z,5.30
2022-09-02T07:25:18.114Z,4.90
2022-09-02T07:26:18.116Z,3.90
2022-09-02T07:27:18.112Z,5.80
2022-09-02T07:28:18.110Z,4.70
2022-09-02T07:29:18.107Z,3.50
2022-09-02T07:30:18.107Z,4.10
2022-09-02T07:31:18.137Z,3.90
2022-09-02T07:32:18.101Z,4.30
2022-09-02T07:33:18.112Z,3.70
2022-09-02T07:34:18.095Z,3.60
2022-09-02T07:35:18.093Z,4.80
2022-09-02T07:36:18.089Z,4.00
2022-09-02T07:37:18.088Z,4.50
2022-09-02T07:38:18.083Z,3.60
2022-09-02T07:39:18.079Z,4.00
2022-09-02T07:40:18.150Z,5.30
2022-09-02T07:41:18.072Z,3.50
2022-09-02T07:42:18.110Z,3.80
2022-09-02T07:43:18.103Z,4.10
2022-09-02T07:44:18.059Z,4.40
2022-09-02T07:45:18.055Z,2.60
2022-09-02T07:46:18.168Z,2.50
2022-09-02T07:47:18.049Z,4.20
2022-09-02T07:48:18.117Z,3.30
2022-09-02T07:49:22.057Z,3.90
2022-09-02T07:50:20.827Z,3.70
2022-09-02T07:51:18.035Z,3.80
2022-09-02T07:52:18.029Z,5.10
2022-09-02T07:53:18.072Z,3.10
2022-09-02T07:54:18.021Z,2.70
2022-09-02T07:55:18.018Z,3.60
2022-09-02T07:56:18.017Z,5.20
2022-09-02T07:57:18.009Z,2.80
2022-09-02T07:58:18.006Z,2.30
2022-09-02T07:59:18.002Z,3.90
2022-09-02T08:00:17.999Z,2.00
2022-09-02T08:01:23.143Z,4.10
2022-09-02T08:02:18.049Z,3.10
2022-09-02T08:03:17.984Z,3.00
2022-09-02T08:04:17.981Z,4.40
2022-09-02T08:05:17.974Z,3.00
2022-09-02T08:06:17.975Z,2.40
2022-09-02T08:07:17.967Z,2.40
2022-09-02T08:08:17.964Z,3.70
2022-09-02T08:09:17.960Z,2.70
2022-09-02T08:10:17.955Z,3.30
2022-09-02T08:11:17.951Z,4.10
2022-09-02T08:12:20.235Z,3.80
2022-09-02T08:13:17.955Z,3.40
2022-09-02T08:14:17.942Z,6.20
2022-09-02T08:15:17.935Z,4.90
2022-09-02T08:16:17.958Z,2.80
2022-09-02T08:17:17.928Z,3.20
2022-09-02T08:18:21.261Z,4.50
2022-09-02T08:19:17.921Z,3.50
2022-09-02T08:20:17.917Z,4.30
2022-09-02T08:21:17.911Z,3.30
2022-09-02T08:22:17.911Z,2.30
2022-09-02T08:23:35.661Z,2.80
2022-09-02T08:24:17.906Z,2.60
2022-09-02T08:25:17.901Z,4.20
2022-09-02T08:26:17.893Z,3.30
2022-09-02T08:27:17.889Z,2.60
2022-09-02T08:28:17.913Z,3.20
2022-09-02T08:29:17.882Z,3.50
2022-09-02T08:30:17.880Z,2.70
2022-09-02T08:31:17.947Z,2.20
2022-09-02T08:32:17.876Z,2.40
2022-09-02T08:33:17.891Z,2.60
2022-09-02T08:34:17.864Z,2.30
2022-09-02T08:35:17.859Z,2.70
2022-09-02T08:36:17.861Z,6.00
2022-09-02T08:37:17.851Z,3.90
2022-09-02T08:38:17.875Z,3.00
2022-09-02T08:39:17.887Z,3.80
2022-09-02T08:40:17.866Z,3.00
2022-09-02T08:41:17.837Z,3.50
2022-09-02T08:42:17.839Z,3.90
2022-09-02T08:43:17.888Z,3.30
2022-09-02T08:44:17.835Z,3.60
2022-09-02T08:45:17.833Z,3.20
2022-09-02T08:46:17.895Z,2.70
2022-09-02T08:47:17.817Z,1.90
2022-09-02T08:48:17.812Z,3.30
2022-09-02T08:49:17.809Z,1.50
2022-09-02T08:50:17.809Z,3.10
2022-09-02T08:51:17.803Z,2.60
2022-09-02T08:52:17.986Z,2.60
2022-09-02T08:53:17.890Z,3.30
2022-09-02T08:54:17.795Z,4.40
2022-09-02T08:55:17.789Z,3.50
2022-09-02T08:56:17.785Z,1.90
2022-09-02T08:57:17.785Z,1.40
2022-09-02T08:58:17.935Z,3.90
2022-09-02T08:59:17.777Z,1.50
2022-09-02T09:00:17.786Z,2.30
2022-09-02T09:01:17.835Z,2.30
2022-09-02T09:02:18.111Z,2.50
2022-09-02T09:03:17.764Z,2.60
2022-09-02T09:04:17.759Z,1.00
2022-09-02T09:05:17.754Z,2.20
2022-09-02T09:06:17.756Z,1.50
2022-09-02T09:07:17.749Z,1.90
2022-09-02T09:08:21.474Z,1.80
2022-09-02T09:09:17.742Z,3.40
2022-09-02T09:10:17.740Z,2.40
2022-09-02T09:11:17.738Z,1.30
2022-09-02T09:12:17.734Z,4.70
2022-09-02T09:13:17.728Z,1.30
2022-09-02T09:14:17.726Z,2.20
2022-09-02T09:15:17.720Z,1.60
2022-09-02T09:16:17.742Z,2.10
2022-09-02T09:17:17.715Z,1.90
2022-09-02T09:18:17.713Z,1.50
2022-09-02T09:19:17.710Z,3.20
2022-09-02T09:20:17.755Z,2.20
2022-09-02T09:21:17.741Z,0.90
2022-09-02T09:22:17.701Z,1.20
2022-09-02T09:23:21.419Z,1.50
2022-09-02T09:24:17.695Z,1.40
2022-09-02T09:25:17.691Z,1.10
2022-09-02T09:26:17.698Z,1.70
2022-09-02T09:27:17.686Z,2.30
2022-09-02T09:28:17.691Z,2.70
2022-09-02T09:29:17.678Z,2.20
2022-09-02T09:30:17.675Z,2.30
2022-09-02T09:31:17.716Z,1.20
2022-09-02T09:32:17.669Z,1.70
2022-09-02T09:33:17.734Z,0.90
2022-09-02T09:34:17.663Z,1.50
2022-09-02T09:35:17.660Z,1.20
2022-09-02T09:36:17.658Z,1.90
2022-09-02T09:37:17.654Z,1.50
2022-09-02T09:38:17.651Z,1.10
2022-09-02T09:39:17.653Z,2.40
2022-09-02T09:40:17.715Z,1.80
2022-09-02T09:41:17.642Z,1.20
2022-09-02T09:42:17.638Z,2.10
2022-09-02T09:43:17.638Z,0.90
2022-09-02T09:44:17.635Z,1.80
2022-09-02T09:45:17.630Z,1.90
2022-09-02T09:46:17.734Z,3.20
2022-09-02T09:47:18.236Z,2.20
2022-09-02T09:48:17.625Z,1.40
2022-09-02T09:49:17.621Z,1.40
2022-09-02T09:50:17.724Z,2.80
2022-09-02T09:51:17.614Z,1.20
2022-09-02T09:52:17.609Z,1.70
2022-09-02T09:53:17.680Z,1.00
2022-09-02T09:54:17.614Z,1.10
2022-09-02T09:55:22.868Z,2.00
2022-09-02T09:56:17.604Z,2.20
2022-09-02T09:57:17.605Z,1.80
2022-09-02T09:58:17.597Z,1.60
2022-09-02T09:59:17.595Z,1.50
2022-09-02T10:00:17.641Z,1.60
2022-09-02T10:01:17.654Z,1.40
2022-09-02T10:02:17.621Z,1.40
2022-09-02T10:03:17.584Z,1.80
2022-09-02T10:04:39.453Z,4.20
2022-09-02T10:05:17.578Z,2.30
2022-09-02T10:06:17.578Z,0.90
2022-09-02T10:07:17.575Z,1.60
2022-09-02T10:08:17.573Z,2.10
2022-09-02T10:09:17.570Z,1.50
2022-09-02T10:10:17.565Z,1.20
2022-09-02T10:11:17.593Z,2.30
2022-09-02T10:12:17.565Z,2.30
2022-09-02T10:14:17.560Z,2.60
2022-09-02T10:15:17.557Z,2.60
2022-09-02T10:16:17.580Z,1.50
2022-09-02T10:17:17.552Z,1.50
2022-09-02T10:18:17.554Z,1.60
2022-09-02T10:19:17.547Z,1.20
2022-09-02T10:20:17.547Z,1.50
2022-09-02T10:21:17.543Z,1.00
2022-09-02T10:22:17.542Z,0.70
2022-09-02T10:23:17.541Z,1.80
2022-09-02T10:24:17.547Z,2.40
2022-09-02T10:25:17.533Z,1.00
2022-09-02T10:26:17.561Z,1.40
2022-09-02T10:27:17.529Z,3.20
2022-09-02T10:28:17.527Z,1.10
2022-09-02T10:29:17.522Z,1.80
2022-09-02T10:30:17.522Z,1.10
2022-09-02T10:31:17.554Z,1.10
2022-09-02T10:32:17.529Z,1.10
2022-09-02T10:33:17.516Z,1.00
2022-09-02T10:34:17.515Z,2.40
2022-09-02T10:35:17.509Z,0.70
2022-09-02T10:36:22.074Z,2.40
2022-09-02T10:37:17.506Z,1.30
2022-09-02T10:38:17.507Z,1.60
2022-09-02T10:39:17.503Z,2.30
2022-09-02T10:40:17.681Z,1.20
2022-09-02T10:41:17.497Z,2.10
2022-09-02T10:42:17.495Z,1.80
2022-09-02T10:43:17.494Z,3.60
2022-09-02T10:44:17.490Z,0.90
2022-09-02T10:45:17.487Z,2.30
2022-09-02T10:46:17.512Z,1.50
2022-09-02T10:47:17.485Z,2.40
2022-09-02T10:48:17.482Z,1.70
2022-09-02T10:49:17.484Z,1.70
2022-09-02T10:50:17.479Z,2.00
2022-09-02T10:51:17.474Z,1.60
2022-09-02T10:53:17.470Z,2.50
2022-09-02T10:54:17.468Z,0.90
2022-09-02T10:55:17.468Z,1.60
2022-09-02T10:56:17.476Z,2.20
2022-09-02T10:57:17.465Z,1.60
2022-09-02T10:58:17.464Z,3.20
2022-09-02T10:59:17.461Z,2.00
2022-09-02T11:00:17.460Z,1.50
2022-09-02T11:01:17.514Z,1.50
2022-09-02T11:02:17.453Z,1.10
2022-09-02T11:03:17.471Z,1.60
2022-09-02T11:04:17.450Z,0.90
2022-09-02T11:05:17.448Z,2.40
2022-09-02T11:06:17.447Z,2.40
2022-09-02T11:07:17.440Z,1.30
2022-09-02T11:08:17.441Z,2.50
2022-09-02T11:09:17.502Z,1.60
2022-09-02T11:10:17.445Z,2.00
2022-09-02T11:11:17.438Z,1.40
2022-09-02T11:12:17.436Z,2.10
2022-09-02T11:13:17.429Z,1.90
2022-09-02T11:14:17.434Z,1.80
2022-09-02T11:15:17.431Z,3.40
2022-09-02T11:16:17.557Z,1.90
2022-09-02T11:17:17.426Z,2.00
2022-09-02T11:18:17.437Z,0.80
2022-09-02T11:19:17.425Z,1.90
2022-09-02T11:20:17.424Z,2.10
2022-09-02T11:21:17.419Z,1.20
2022-09-02T11:22:17.420Z,0.90
2022-09-02T11:23:17.418Z,1.20
2022-09-02T11:24:17.419Z,1.70
2022-09-02T11:25:17.413Z,1.20
2022-09-02T11:26:17.410Z,1.60
2022-09-02T11:27:26.283Z,2.40
2022-09-02T11:28:17.408Z,0.90
2022-09-02T11:29:17.411Z,2.00
2022-09-02T11:30:17.402Z,1.80
2022-09-02T11:31:17.402Z,1.10
2022-09-02T11:32:17.401Z,1.80
2022-09-02T11:33:17.458Z,0.90
2022-09-02T11:34:17.398Z,1.40
2022-09-02T11:35:17.403Z,0.90
2022-09-02T11:36:17.398Z,1.50
2022-09-02T11:37:19.815Z,1.60
2022-09-02T11:38:17.393Z,1.50
2022-09-02T11:39:25.774Z,3.10
2022-09-02T11:40:33.855Z,0.90
2022-09-02T11:41:35.967Z,2.50
2022-09-02T11:42:17.483Z,2.40
2022-09-02T11:43:17.382Z,1.80
2022-09-02T11:44:17.384Z,2.60
2022-09-02T11:45:17.424Z,2.80
2022-09-02T11:46:17.428Z,2.10
2022-09-02T11:47:17.375Z,2.10
2022-09-02T11:48:17.373Z,1.80
2022-09-02T11:49:17.372Z,1.20
2022-09-02T11:50:17.371Z,2.00
2022-09-02T11:51:17.410Z,1.70
2022-09-02T11:52:17.386Z,1.50
2022-09-02T11:53:17.375Z,2.00
2022-09-02T11:54:17.364Z,2.00
2022-09-02T11:55:17.363Z,1.20
2022-09-02T11:56:17.362Z,1.80
2022-09-02T11:57:17.359Z,3.70
2022-09-02T11:58:17.360Z,3.10
2022-09-02T11:59:17.357Z,2.10
2022-09-02T12:00:17.355Z,1.20
2022-09-02T12:01:19.095Z,2.10
2022-09-02T12:02:17.352Z,2.70
2022-09-02T12:03:40.935Z,2.00
2022-09-02T12:05:17.434Z,2.70
2022-09-02T12:06:17.420Z,3.70
2022-09-02T12:07:17.342Z,1.60
2022-09-02T12:08:17.340Z,1.90
2022-09-02T12:09:17.338Z,2.30
2022-09-02T12:10:17.338Z,1.60
2022-09-02T12:11:17.336Z,2.40
2022-09-02T12:12:17.335Z,2.00
2022-09-02T12:13:17.332Z,1.80
2022-09-02T12:14:17.326Z,2.60
2022-09-02T12:15:17.330Z,1.20
2022-09-02T12:16:17.355Z,1.60
2022-09-02T12:17:17.327Z,2.50
2022-09-02T12:18:17.325Z,2.20
2022-09-02T12:19:17.324Z,2.90
2022-09-02T12:20:17.326Z,1.50
2022-09-02T12:21:19.425Z,1.30
2022-09-02T12:22:17.320Z,2.70
2022-09-02T12:23:17.317Z,2.80
2022-09-02T12:24:17.317Z,2.30
2022-09-02T12:25:17.313Z,1.90
2022-09-02T12:26:17.310Z,2.40
2022-09-02T12:27:17.313Z,2.10
2022-09-02T12:28:21.492Z,2.40
2022-09-02T12:29:17.309Z,2.60
2022-09-02T12:30:17.307Z,1.20
2022-09-02T12:31:17.395Z,1.60
2022-09-02T12:32:17.304Z,1.70
2022-09-02T12:33:17.311Z,2.70
2022-09-02T12:34:17.300Z,1.80
2022-09-02T12:35:17.294Z,2.20
2022-09-02T12:36:17.300Z,1.60
2022-09-02T12:37:17.296Z,2.10
2022-09-02T12:38:17.333Z,1.30
2022-09-02T12:39:17.292Z,0.80
2022-09-02T12:40:17.370Z,1.40
2022-09-02T12:41:17.287Z,1.90
2022-09-02T12:42:17.288Z,2.10
2022-09-02T12:43:17.286Z,2.20
2022-09-02T12:44:17.283Z,1.10
2022-09-02T12:45:17.281Z,4.20
2022-09-02T12:46:17.339Z,1.90
2022-09-02T12:47:17.279Z,2.90
2022-09-02T12:48:17.279Z,1.40
2022-09-02T12:49:17.276Z,1.20
2022-09-02T12:50:17.273Z,1.90
2022-09-02T12:51:17.272Z,1.90
2022-09-02T12:52:17.270Z,1.80
2022-09-02T12:53:20.936Z,2.60
2022-09-02T12:54:17.266Z,1.60
2022-09-02T12:55:17.266Z,2.40
2022-09-02T12:56:17.265Z,2.50
2022-09-02T12:57:17.262Z,2.40
2022-09-02T12:58:17.263Z,1.80
2022-09-02T12:59:17.260Z,1.50
2022-09-02T13:00:17.255Z,1.00
2022-09-02T13:01:17.292Z,1.20
2022-09-02T13:02:17.260Z,1.90
2022-09-02T13:03:17.286Z,1.40
2022-09-02T13:04:17.253Z,2.40
2022-09-02T13:05:17.263Z,3.30
2022-09-02T13:06:17.249Z,2.00
2022-09-02T13:07:17.250Z,1.90
2022-09-02T13:08:17.247Z,2.20
2022-09-02T13:09:17.287Z,1.90
2022-09-02T13:10:17.244Z,2.20
2022-09-02T13:11:17.242Z,1.40
2022-09-02T13:12:17.240Z,1.30
2022-09-02T13:13:17.237Z,1.60
2022-09-02T13:14:17.238Z,1.50
2022-09-02T13:15:20.176Z,0.80
2022-09-02T13:16:19.105Z,2.50
2022-09-02T13:17:35.514Z,2.50
2022-09-02T13:18:17.231Z,1.30
2022-09-02T13:19:17.234Z,2.00
2022-09-02T13:20:17.230Z,3.30
2022-09-02T13:21:17.225Z,1.40
2022-09-02T13:22:17.225Z,1.40
2022-09-02T13:23:17.227Z,1.60
2022-09-02T13:24:17.223Z,1.20
2022-09-02T13:25:17.276Z,2.90
2022-09-02T13:26:32.859Z,1.60
2022-09-02T13:27:17.216Z,4.50
2022-09-02T13:28:17.214Z,1.70
2022-09-02T13:29:17.213Z,2.00
2022-09-02T13:30:17.210Z,1.20
2022-09-02T13:31:17.265Z,3.10
2022-09-02T13:32:17.208Z,1.90
2022-09-02T13:33:17.206Z,1.40
2022-09-02T13:34:17.206Z,2.20
2022-09-02T13:35:21.469Z,2.50
2022-09-02T13:36:17.203Z,2.70
2022-09-02T13:37:17.202Z,3.00
2022-09-02T13:38:18.622Z,1.60
2022-09-02T13:39:17.197Z,1.50
2022-09-02T13:40:17.197Z,3.30
2022-09-02T13:41:17.196Z,1.70
2022-09-02T13:42:17.194Z,2.60
2022-09-02T13:43:17.191Z,1.80
2022-09-02T13:44:17.192Z,3.70
2022-09-02T13:45:17.191Z,1.30
2022-09-02T13:46:17.200Z,2.20
2022-09-02T13:47:17.208Z,1.10
2022-09-02T13:48:17.185Z,1.20
2022-09-02T13:49:17.184Z,1.70
2022-09-02T13:50:17.183Z,2.40
2022-09-02T13:51:17.181Z,2.20
2022-09-02T13:52:17.248Z,1.90
2022-09-02T13:53:45.693Z,3.20
2022-09-02T13:54:23.157Z,1.40
2022-09-02T13:55:17.180Z,3.00
2022-09-02T13:56:17.171Z,1.90
2022-09-02T13:57:17.173Z,2.50
2022-09-02T13:58:17.169Z,2.10
2022-09-02T13:59:17.172Z,2.60
2022-09-02T14:00:17.236Z,1.80
2022-09-02T14:01:17.375Z,2.00
2022-09-02T14:02:17.307Z,2.70
2022-09-02T14:03:17.318Z,2.40
2022-09-02T14:04:17.166Z,2.80
2022-09-02T14:05:17.163Z,2.00
2022-09-02T14:06:17.162Z,3.30
2022-09-02T14:07:17.160Z,2.40
2022-09-02T14:08:17.159Z,1.00
2022-09-02T14:09:17.160Z,1.20
2022-09-02T14:10:17.157Z,2.00
2022-09-02T14:11:17.155Z,5.00
2022-09-02T14:12:17.158Z,1.40
2022-09-02T14:13:17.152Z,1.90
2022-09-02T14:14:17.152Z,2.80
2022-09-02T14:15:17.149Z,2.00
2022-09-02T14:16:17.174Z,0.90
2022-09-02T14:17:17.147Z,2.40
2022-09-02T14:18:18.165Z,2.00
2022-09-02T14:19:17.148Z,2.30
2022-09-02T14:20:17.144Z,1.60
2022-09-02T14:21:17.140Z,2.20
2022-09-02T14:22:17.143Z,2.10
2022-09-02T14:23:17.138Z,2.00
2022-09-02T14:24:17.136Z,3.30
2022-09-02T14:25:17.134Z,1.70
2022-09-02T14:26:17.134Z,2.10
2022-09-02T14:27:17.135Z,2.30
2022-09-02T14:28:17.131Z,1.40
2022-09-02T14:29:17.127Z,2.70
2022-09-02T14:30:17.127Z,3.20
2022-09-02T14:31:18.834Z,1.80
2022-09-02T14:32:17.122Z,2.00
2022-09-02T14:33:17.120Z,1.50
2022-09-02T14:34:17.119Z,2.80
2022-09-02T14:35:17.123Z,1.30
2022-09-02T14:36:17.119Z,2.60
2022-09-02T14:37:17.116Z,3.70
2022-09-02T14:38:17.116Z,3.10
2022-09-02T14:39:17.163Z,1.40
2022-09-02T14:40:17.110Z,2.60
2022-09-02T14:41:17.108Z,2.40
2022-09-02T14:42:17.107Z,3.70
2022-09-02T14:43:17.105Z,1.50
2022-09-02T14:44:17.103Z,3.80
2022-09-02T14:45:17.101Z,1.70
2022-09-02T14:46:17.151Z,1.60
2022-09-02T14:47:17.100Z,3.50